»·PEaware :: SWA202 KFNT-KMDW

SWA202 :: KFNT-KMDW

FLIGHT INFORMATION

Flight Status: Arrived
Operator:
Southwest Airlines
More flights by this operator :: More flights under this callsign
Pilot: Anonymous 14085 (14085)
Aircraft: BOEING 737-300
(B733)
More flights by this aircraft type
Origin: KFNT Bishop Intl
United States
Destination: KMDW Chicago-Midway
United States
More flights between these airports :: More routes between these airports
Route: QUBEE LFD PANGG3
File this flight plan on PilotEdge
Remarks: PBN / A1B3B4B5D3D4 DOF / 170606 REG / N372SB EET / KZAU0014 OPR / SWA RMK / TCAS SIMBRIEF
Altitude:
(Current/Filed)
30,000ft
Speed:
(Current/Filed)
421kts
Departed: 06-Jun-17 02:59 PM
Arrived: 06-Jun-17 03:49 PM
Distance/Time
Traveled:
191nm/0:50
Distance/Time
To Go:
Arrived

Flight Plot

Page will automatically refresh every two minutes.

Flight plan parsing failed; only flown route is shown


Map Options




Map Legend


Flown Route
Filed Route
Departure Airport
Arrival Airport
Navaid (VOR, NDB)
Fix

Horizontal Profiles

Position Reports

Time Latitude Longitude Heading Altitude Ground
Speed
06-Jun-17 14:45 42.972386 -83.739887 179 773ft 0kts
06-Jun-17 14:46 42.972386 -83.739887 179 773ft 0kts
06-Jun-17 14:47 42.972386 -83.739887 179 773ft 0kts
06-Jun-17 14:48 42.972386 -83.739887 179 773ft 0kts
06-Jun-17 14:49 42.972386 -83.739887 179 773ft 0kts
06-Jun-17 14:50 42.972386 -83.739887 179 773ft 0kts
06-Jun-17 14:51 42.972386 -83.739887 179 773ft 0kts
06-Jun-17 14:52 42.972386 -83.739887 179 773ft 0kts
06-Jun-17 14:53 42.972386 -83.739887 179 773ft 0kts
06-Jun-17 14:54 42.972386 -83.739887 179 773ft 0kts
06-Jun-17 14:55 42.972386 -83.739887 179 773ft 0kts
06-Jun-17 14:56 42.972370 -83.739887 179 773ft 1kts
06-Jun-17 14:57 42.970696 -83.739757 179 773ft 9kts
06-Jun-17 14:58 42.970281 -83.746694 268 773ft 22kts
06-Jun-17 14:59 42.970081 -83.756192 269 773ft 27kts
06-Jun-17 15:00 42.968979 -83.759059 83 773ft 0kts
06-Jun-17 15:01 42.969390 -83.732308 90 944ft 167kts
06-Jun-17 15:02 42.939405 -83.677839 187 2466ft 264kts
06-Jun-17 15:03 42.913770 -83.761163 270 5391ft 276kts
06-Jun-17 15:04 42.889634 -83.858087 224 8275ft 288kts
06-Jun-17 15:05 42.832989 -83.941851 227 10277ft 333kts
06-Jun-17 15:06 42.765701 -84.042940 229 12281ft 373kts
06-Jun-17 15:07 42.692673 -84.144437 217 14895ft 388kts
06-Jun-17 15:08 42.603678 -84.232010 218 17165ft 403kts
06-Jun-17 15:09 42.512146 -84.323156 218 19288ft 418kts
06-Jun-17 15:10 42.425984 -84.408551 219 21146ft 429kts
06-Jun-17 15:11 42.327768 -84.505596 219 22032ft 450kts
06-Jun-17 15:12 42.226601 -84.605164 219 22055ft 452kts
06-Jun-17 15:13 42.134577 -84.695554 218 22045ft 449kts
06-Jun-17 15:14 42.099377 -84.729754 218 22050ft 450kts
06-Jun-17 15:15 42.035730 -84.804866 233 22053ft 444kts
06-Jun-17 15:16 41.956387 -84.932222 232 22028ft 445kts
06-Jun-17 15:17 41.877190 -85.056210 232 22008ft 445kts
06-Jun-17 15:18 41.798643 -85.178587 232 22024ft 445kts
06-Jun-17 15:19 41.718059 -85.303826 232 22023ft 445kts
06-Jun-17 15:20 41.637245 -85.428903 232 22016ft 446kts
06-Jun-17 15:21 41.556029 -85.554072 232 21996ft 446kts
06-Jun-17 15:22 41.505001 -85.692451 282 21146ft 422kts
06-Jun-17 15:23 41.520145 -85.836678 275 19240ft 406kts
06-Jun-17 15:24 41.523718 -85.984562 273 17242ft 394kts
06-Jun-17 15:25 41.524988 -86.127299 271 15240ft 377kts
06-Jun-17 15:26 41.524317 -86.259340 272 13867ft 337kts
06-Jun-17 15:27 41.523786 -86.377055 272 12826ft 300kts
06-Jun-17 15:28 41.522891 -86.486290 271 11837ft 293kts
06-Jun-17 15:29 41.522096 -86.592332 269 10837ft 282kts
06-Jun-17 15:30 41.521244 -86.692063 267 9866ft 283kts
06-Jun-17 15:31 41.520379 -86.796608 267 8878ft 287kts
06-Jun-17 15:32 41.519411 -86.903491 268 7886ft 290kts
06-Jun-17 15:33 41.518015 -87.009340 269 6897ft 285kts
06-Jun-17 15:34 41.516819 -87.113751 268 5981ft 279kts
06-Jun-17 15:35 41.519374 -87.217070 274 5926ft 282kts
06-Jun-17 15:36 41.525119 -87.320159 274 5429ft 277kts
06-Jun-17 15:37 41.530757 -87.422043 274 4976ft 274kts
06-Jun-17 15:38 41.535902 -87.516350 274 5026ft 240kts
06-Jun-17 15:39 41.540243 -87.596997 274 5017ft 191kts
06-Jun-17 15:40 41.544381 -87.668838 273 4998ft 196kts
06-Jun-17 15:41 41.548824 -87.741411 274 5003ft 197kts
06-Jun-17 15:42 41.553337 -87.814313 274 4998ft 197kts
06-Jun-17 15:43 41.557597 -87.886854 273 4961ft 196kts
06-Jun-17 15:44 41.586595 -87.944790 320 4855ft 198kts
06-Jun-17 15:45 41.625626 -87.946200 31 4305ft 188kts
06-Jun-17 15:46 41.671467 -87.896889 47 3956ft 175kts
06-Jun-17 15:47 41.704791 -87.852968 43 2926ft 154kts
06-Jun-17 15:48 41.734348 -87.815605 39 2047ft 147kts
06-Jun-17 15:49 41.758757 -87.785279 39 1348ft 149kts
06-Jun-17 15:50 41.786732 -87.749749 42 615ft 48kts
06-Jun-17 15:51 41.786534 -87.746546 109 615ft 0kts
06-Jun-17 15:52 41.786534 -87.746546 109 615ft 0kts

Navigation Log

Ident Type
Flight plan parsing failed, navigation log unavailable